sensor_id;sensor_type;location;lat;lon;timestamp;P1;durP1;ratioP1;P2;durP2;ratioP2
7997;SDS011;4044;49.814;7.828;2023-04-01T00:00:57;5.23;;;1.60;;
7997;SDS011;4044;49.814;7.828;2023-04-01T00:03:23;3.70;;;1.80;;
7997;SDS011;4044;49.814;7.828;2023-04-01T00:05:50;3.63;;;1.57;;
7997;SDS011;4044;49.814;7.828;2023-04-01T00:08:16;4.00;;;1.60;;
7997;SDS011;4044;49.814;7.828;2023-04-01T00:10:42;6.97;;;2.00;;
7997;SDS011;4044;49.814;7.828;2023-04-01T00:13:08;3.20;;;1.60;;
7997;SDS011;4044;49.814;7.828;2023-04-01T00:15:34;6.37;;;1.90;;
7997;SDS011;4044;49.814;7.828;2023-04-01T00:18:00;2.87;;;1.73;;
7997;SDS011;4044;49.814;7.828;2023-04-01T00:20:25;3.70;;;1.73;;
7997;SDS011;4044;49.814;7.828;2023-04-01T00:22:51;3.80;;;1.70;;
7997;SDS011;4044;49.814;7.828;2023-04-01T00:25:17;2.03;;;1.73;;
7997;SDS011;4044;49.814;7.828;2023-04-01T00:27:43;2.43;;;1.70;;
7997;SDS011;4044;49.814;7.828;2023-04-01T00:30:09;4.57;;;1.70;;
7997;SDS011;4044;49.814;7.828;2023-04-01T00:32:35;3.20;;;1.67;;
7997;SDS011;4044;49.814;7.828;2023-04-01T00:35:01;3.37;;;1.67;;
7997;SDS011;4044;49.814;7.828;2023-04-01T00:37:27;3.70;;;1.67;;
7997;SDS011;4044;49.814;7.828;2023-04-01T00:39:52;3.97;;;2.33;;
7997;SDS011;4044;49.814;7.828;2023-04-01T00:42:18;3.20;;;1.70;;
7997;SDS011;4044;49.814;7.828;2023-04-01T00:44:45;4.77;;;2.10;;
7997;SDS011;4044;49.814;7.828;2023-04-01T00:47:15;2.37;;;1.83;;
7997;SDS011;4044;49.814;7.828;2023-04-01T00:49:42;2.10;;;1.63;;
7997;SDS011;4044;49.814;7.828;2023-04-01T00:52:13;2.93;;;1.70;;
7997;SDS011;4044;49.814;7.828;2023-04-01T00:54:41;5.80;;;1.70;;
7997;SDS011;4044;49.814;7.828;2023-04-01T00:57:13;2.90;;;1.70;;
7997;SDS011;4044;49.814;7.828;2023-04-01T00:59:50;2.77;;;1.53;;
7997;SDS011;4044;49.814;7.828;2023-04-01T01:02:19;4.17;;;1.53;;
7997;SDS011;4044;49.814;7.828;2023-04-01T01:04:45;3.03;;;1.80;;
7997;SDS011;4044;49.814;7.828;2023-04-01T01:07:25;2.87;;;1.50;;
7997;SDS011;4044;49.814;7.828;2023-04-01T01:12:40;4.40;;;1.90;;
7997;SDS011;4044;49.814;7.828;2023-04-01T01:15:20;4.40;;;1.63;;
7997;SDS011;4044;49.814;7.828;2023-04-01T01:23:27;2.80;;;1.20;;
7997;SDS011;4044;49.814;7.828;2023-04-01T01:31:44;4.20;;;1.67;;
7997;SDS011;4044;49.814;7.828;2023-04-01T01:34:22;4.13;;;1.70;;
7997;SDS011;4044;49.814;7.828;2023-04-01T01:36:57;5.00;;;1.43;;
7997;SDS011;4044;49.814;7.828;2023-04-01T01:39:26;4.23;;;1.70;;
7997;SDS011;4044;49.814;7.828;2023-04-01T01:41:56;2.53;;;1.47;;
7997;SDS011;4044;49.814;7.828;2023-04-01T01:44:24;2.13;;;1.70;;
7997;SDS011;4044;49.814;7.828;2023-04-01T01:46:53;3.80;;;1.40;;
7997;SDS011;4044;49.814;7.828;2023-04-01T01:49:19;4.30;;;1.67;;
7997;SDS011;4044;49.814;7.828;2023-04-01T01:51:45;2.83;;;1.47;;
7997;SDS011;4044;49.814;7.828;2023-04-01T01:54:13;3.07;;;1.30;;
7997;SDS011;4044;49.814;7.828;2023-04-01T01:56:40;4.30;;;1.20;;
7997;SDS011;4044;49.814;7.828;2023-04-01T01:59:08;3.33;;;1.50;;
7997;SDS011;4044;49.814;7.828;2023-04-01T02:01:37;2.50;;;1.53;;
7997;SDS011;4044;49.814;7.828;2023-04-01T02:04:06;1.97;;;1.27;;
7997;SDS011;4044;49.814;7.828;2023-04-01T02:06:34;3.87;;;1.73;;
7997;SDS011;4044;49.814;7.828;2023-04-01T02:09:06;5.43;;;1.50;;
7997;SDS011;4044;49.814;7.828;2023-04-01T02:11:43;3.70;;;1.70;;
7997;SDS011;4044;49.814;7.828;2023-04-01T02:14:57;2.37;;;1.40;;
7997;SDS011;4044;49.814;7.828;2023-04-01T02:17:19;3.60;;;1.40;;
7997;SDS011;4044;49.814;7.828;2023-04-01T02:19:51;2.30;;;1.50;;
7997;SDS011;4044;49.814;7.828;2023-04-01T02:22:21;4.27;;;1.40;;
7997;SDS011;4044;49.814;7.828;2023-04-01T02:24:50;4.70;;;1.70;;
7997;SDS011;4044;49.814;7.828;2023-04-01T02:27:22;2.53;;;1.53;;
7997;SDS011;4044;49.814;7.828;2023-04-01T02:29:49;4.13;;;1.60;;
7997;SDS011;4044;49.814;7.828;2023-04-01T02:32:16;3.00;;;1.60;;
7997;SDS011;4044;49.814;7.828;2023-04-01T02:34:43;2.30;;;1.57;;
7997;SDS011;4044;49.814;7.828;2023-04-01T02:37:09;4.63;;;2.00;;
7997;SDS011;4044;49.814;7.828;2023-04-01T02:39:36;6.20;;;2.00;;
7997;SDS011;4044;49.814;7.828;2023-04-01T02:42:02;3.93;;;1.50;;
7997;SDS011;4044;49.814;7.828;2023-04-01T02:44:27;3.80;;;1.50;;
7997;SDS011;4044;49.814;7.828;2023-04-01T02:46:53;4.67;;;1.63;;
7997;SDS011;4044;49.814;7.828;2023-04-01T02:49:18;2.93;;;1.60;;
7997;SDS011;4044;49.814;7.828;2023-04-01T02:51:44;1.83;;;1.57;;
7997;SDS011;4044;49.814;7.828;2023-04-01T02:54:09;2.87;;;1.70;;
7997;SDS011;4044;49.814;7.828;2023-04-01T02:56:35;4.90;;;1.60;;
7997;SDS011;4044;49.814;7.828;2023-04-01T02:59:00;3.37;;;1.40;;
7997;SDS011;4044;49.814;7.828;2023-04-01T03:01:26;4.87;;;1.80;;
7997;SDS011;4044;49.814;7.828;2023-04-01T03:03:51;4.50;;;1.63;;
7997;SDS011;4044;49.814;7.828;2023-04-01T03:06:17;3.80;;;1.40;;
7997;SDS011;4044;49.814;7.828;2023-04-01T03:08:43;4.93;;;1.90;;
7997;SDS011;4044;49.814;7.828;2023-04-01T03:11:10;5.60;;;1.90;;
7997;SDS011;4044;49.814;7.828;2023-04-01T03:13:36;4.87;;;1.73;;
7997;SDS011;4044;49.814;7.828;2023-04-01T03:16:02;6.33;;;1.93;;
7997;SDS011;4044;49.814;7.828;2023-04-01T03:18:27;4.50;;;1.90;;
7997;SDS011;4044;49.814;7.828;2023-04-01T03:20:53;4.23;;;2.03;;
7997;SDS011;4044;49.814;7.828;2023-04-01T03:23:19;4.63;;;1.93;;
7997;SDS011;4044;49.814;7.828;2023-04-01T03:25:46;3.17;;;1.83;;
7997;SDS011;4044;49.814;7.828;2023-04-01T03:28:12;4.43;;;1.80;;
7997;SDS011;4044;49.814;7.828;2023-04-01T03:30:38;3.53;;;1.70;;
7997;SDS011;4044;49.814;7.828;2023-04-01T03:33:04;3.10;;;1.60;;
7997;SDS011;4044;49.814;7.828;2023-04-01T03:35:30;2.30;;;1.60;;
7997;SDS011;4044;49.814;7.828;2023-04-01T03:37:55;3.13;;;1.40;;
7997;SDS011;4044;49.814;7.828;2023-04-01T03:40:21;2.97;;;1.30;;
7997;SDS011;4044;49.814;7.828;2023-04-01T03:42:47;2.07;;;1.23;;
7997;SDS011;4044;49.814;7.828;2023-04-01T03:45:13;3.27;;;1.37;;
7997;SDS011;4044;49.814;7.828;2023-04-01T03:47:38;3.10;;;1.30;;
7997;SDS011;4044;49.814;7.828;2023-04-01T03:50:05;3.10;;;1.77;;
7997;SDS011;4044;49.814;7.828;2023-04-01T03:52:32;2.40;;;1.50;;
7997;SDS011;4044;49.814;7.828;2023-04-01T03:54:57;4.67;;;1.77;;
7997;SDS011;4044;49.814;7.828;2023-04-01T03:57:23;4.47;;;1.90;;
7997;SDS011;4044;49.814;7.828;2023-04-01T03:59:48;3.37;;;2.37;;
7997;SDS011;4044;49.814;7.828;2023-04-01T04:02:14;2.67;;;2.00;;
7997;SDS011;4044;49.814;7.828;2023-04-01T04:04:40;4.10;;;1.80;;
7997;SDS011;4044;49.814;7.828;2023-04-01T04:07:06;3.93;;;2.10;;
7997;SDS011;4044;49.814;7.828;2023-04-01T04:09:31;3.63;;;1.70;;
7997;SDS011;4044;49.814;7.828;2023-04-01T04:11:58;3.40;;;2.20;;
7997;SDS011;4044;49.814;7.828;2023-04-01T04:14:24;4.37;;;2.00;;
7997;SDS011;4044;49.814;7.828;2023-04-01T04:16:49;4.23;;;1.90;;
7997;SDS011;4044;49.814;7.828;2023-04-01T04:19:15;4.33;;;1.67;;
7997;SDS011;4044;49.814;7.828;2023-04-01T04:21:41;2.70;;;1.40;;
7997;SDS011;4044;49.814;7.828;2023-04-01T04:24:07;4.23;;;1.67;;
7997;SDS011;4044;49.814;7.828;2023-04-01T04:26:32;3.37;;;1.90;;
7997;SDS011;4044;49.814;7.828;2023-04-01T04:28:58;4.40;;;1.60;;
7997;SDS011;4044;49.814;7.828;2023-04-01T04:31:24;4.27;;;1.83;;
7997;SDS011;4044;49.814;7.828;2023-04-01T04:33:50;4.07;;;1.40;;
7997;SDS011;4044;49.814;7.828;2023-04-01T04:36:17;5.60;;;1.70;;
7997;SDS011;4044;49.814;7.828;2023-04-01T04:38:42;4.07;;;1.40;;
7997;SDS011;4044;49.814;7.828;2023-04-01T04:41:09;2.97;;;1.40;;
7997;SDS011;4044;49.814;7.828;2023-04-01T04:43:36;3.67;;;1.23;;
7997;SDS011;4044;49.814;7.828;2023-04-01T04:46:08;4.70;;;1.70;;
7997;SDS011;4044;49.814;7.828;2023-04-01T04:48:35;2.17;;;1.53;;
7997;SDS011;4044;49.814;7.828;2023-04-01T04:51:01;3.03;;;1.20;;
7997;SDS011;4044;49.814;7.828;2023-04-01T04:53:28;4.50;;;1.80;;
7997;SDS011;4044;49.814;7.828;2023-04-01T04:55:53;4.60;;;1.33;;
7997;SDS011;4044;49.814;7.828;2023-04-01T04:58:19;3.93;;;1.40;;
7997;SDS011;4044;49.814;7.828;2023-04-01T05:00:45;1.43;;;1.20;;
7997;SDS011;4044;49.814;7.828;2023-04-01T05:03:11;2.47;;;1.20;;
7997;SDS011;4044;49.814;7.828;2023-04-01T05:05:38;3.20;;;1.50;;
7997;SDS011;4044;49.814;7.828;2023-04-01T05:08:04;2.30;;;1.50;;
7997;SDS011;4044;49.814;7.828;2023-04-01T05:10:30;3.40;;;1.40;;
7997;SDS011;4044;49.814;7.828;2023-04-01T05:12:56;1.80;;;1.40;;
7997;SDS011;4044;49.814;7.828;2023-04-01T05:15:22;2.20;;;1.23;;
7997;SDS011;4044;49.814;7.828;2023-04-01T05:17:48;4.37;;;1.30;;
7997;SDS011;4044;49.814;7.828;2023-04-01T05:20:13;2.43;;;1.10;;
7997;SDS011;4044;49.814;7.828;2023-04-01T05:22:40;2.63;;;1.27;;
7997;SDS011;4044;49.814;7.828;2023-04-01T05:25:05;3.30;;;1.17;;
7997;SDS011;4044;49.814;7.828;2023-04-01T05:27:31;1.73;;;1.13;;
7997;SDS011;4044;49.814;7.828;2023-04-01T05:29:57;2.23;;;1.37;;
7997;SDS011;4044;49.814;7.828;2023-04-01T05:32:23;3.73;;;1.30;;
7997;SDS011;4044;49.814;7.828;2023-04-01T05:34:51;2.90;;;1.10;;
7997;SDS011;4044;49.814;7.828;2023-04-01T05:37:17;4.23;;;0.83;;
7997;SDS011;4044;49.814;7.828;2023-04-01T05:39:43;2.67;;;1.00;;
7997;SDS011;4044;49.814;7.828;2023-04-01T05:42:08;1.93;;;0.87;;
7997;SDS011;4044;49.814;7.828;2023-04-01T05:44:34;3.07;;;0.90;;
7997;SDS011;4044;49.814;7.828;2023-04-01T05:47:00;1.60;;;0.80;;
7997;SDS011;4044;49.814;7.828;2023-04-01T05:49:27;1.90;;;0.80;;
7997;SDS011;4044;49.814;7.828;2023-04-01T05:51:52;1.20;;;0.70;;
7997;SDS011;4044;49.814;7.828;2023-04-01T05:54:18;1.13;;;0.83;;
7997;SDS011;4044;49.814;7.828;2023-04-01T05:56:43;2.93;;;1.03;;
7997;SDS011;4044;49.814;7.828;2023-04-01T05:59:10;1.57;;;0.87;;
7997;SDS011;4044;49.814;7.828;2023-04-01T06:01:36;3.67;;;1.20;;
7997;SDS011;4044;49.814;7.828;2023-04-01T06:04:02;1.43;;;0.90;;
7997;SDS011;4044;49.814;7.828;2023-04-01T06:06:28;2.07;;;1.03;;
7997;SDS011;4044;49.814;7.828;2023-04-01T06:09:06;3.40;;;1.00;;
7997;SDS011;4044;49.814;7.828;2023-04-01T06:12:16;1.77;;;0.90;;
7997;SDS011;4044;49.814;7.828;2023-04-01T06:20:33;1.70;;;0.90;;
7997;SDS011;4044;49.814;7.828;2023-04-01T06:23:17;1.67;;;1.10;;
7997;SDS011;4044;49.814;7.828;2023-04-01T06:26:11;1.33;;;0.93;;
7997;SDS011;4044;49.814;7.828;2023-04-01T06:34:20;2.47;;;0.90;;
7997;SDS011;4044;49.814;7.828;2023-04-01T06:48:05;1.10;;;0.70;;
7997;SDS011;4044;49.814;7.828;2023-04-01T06:56:20;1.20;;;0.87;;
7997;SDS011;4044;49.814;7.828;2023-04-01T06:58:52;1.13;;;0.63;;
7997;SDS011;4044;49.814;7.828;2023-04-01T07:01:28;1.27;;;0.57;;
7997;SDS011;4044;49.814;7.828;2023-04-01T07:07:01;1.80;;;0.70;;
7997;SDS011;4044;49.814;7.828;2023-04-01T07:09:37;1.83;;;0.63;;
7997;SDS011;4044;49.814;7.828;2023-04-01T07:12:09;1.33;;;0.70;;
7997;SDS011;4044;49.814;7.828;2023-04-01T07:14:43;0.40;;;0.40;;
7997;SDS011;4044;49.814;7.828;2023-04-01T07:17:17;0.60;;;0.60;;
7997;SDS011;4044;49.814;7.828;2023-04-01T07:20:16;2.03;;;0.70;;
7997;SDS011;4044;49.814;7.828;2023-04-01T07:22:58;0.50;;;0.50;;
7997;SDS011;4044;49.814;7.828;2023-04-01T07:25:26;0.40;;;0.40;;
7997;SDS011;4044;49.814;7.828;2023-04-01T07:28:05;0.77;;;0.70;;
7997;SDS011;4044;49.814;7.828;2023-04-01T07:30:47;1.33;;;0.60;;
7997;SDS011;4044;49.814;7.828;2023-04-01T07:33:33;0.67;;;0.47;;
7997;SDS011;4044;49.814;7.828;2023-04-01T07:36:20;1.63;;;0.53;;
7997;SDS011;4044;49.814;7.828;2023-04-01T07:39:06;0.67;;;0.67;;
7997;SDS011;4044;49.814;7.828;2023-04-01T07:44:23;0.67;;;0.60;;
7997;SDS011;4044;49.814;7.828;2023-04-01T07:52:23;0.67;;;0.50;;
7997;SDS011;4044;49.814;7.828;2023-04-01T07:58:00;1.83;;;0.70;;
7997;SDS011;4044;49.814;7.828;2023-04-01T08:00:51;1.00;;;0.93;;
7997;SDS011;4044;49.814;7.828;2023-04-01T08:06:03;0.90;;;0.83;;
7997;SDS011;4044;49.814;7.828;2023-04-01T08:09:02;0.80;;;0.70;;
7997;SDS011;4044;49.814;7.828;2023-04-01T08:11:41;0.60;;;0.60;;
7997;SDS011;4044;49.814;7.828;2023-04-01T08:22:28;0.47;;;0.47;;
7997;SDS011;4044;49.814;7.828;2023-04-01T08:25:04;0.40;;;0.40;;
7997;SDS011;4044;49.814;7.828;2023-04-01T08:27:37;0.27;;;0.27;;
7997;SDS011;4044;49.814;7.828;2023-04-01T08:32:56;0.23;;;0.23;;
7997;SDS011;4044;49.814;7.828;2023-04-01T08:35:26;0.30;;;0.30;;
7997;SDS011;4044;49.814;7.828;2023-04-01T08:37:53;0.30;;;0.30;;
7997;SDS011;4044;49.814;7.828;2023-04-01T08:43:22;0.30;;;0.20;;
7997;SDS011;4044;49.814;7.828;2023-04-01T08:49:00;0.20;;;0.20;;
7997;SDS011;4044;49.814;7.828;2023-04-01T08:54:38;0.87;;;0.30;;
7997;SDS011;4044;49.814;7.828;2023-04-01T08:57:13;0.30;;;0.30;;
7997;SDS011;4044;49.814;7.828;2023-04-01T09:06:12;0.17;;;0.17;;
7997;SDS011;4044;49.814;7.828;2023-04-01T09:12:15;0.10;;;0.10;;
7997;SDS011;4044;49.814;7.828;2023-04-01T09:15:20;0.27;;;0.20;;
7997;SDS011;4044;49.814;7.828;2023-04-01T09:23:24;0.20;;;0.20;;
7997;SDS011;4044;49.814;7.828;2023-04-01T09:28:33;0.87;;;0.40;;
7997;SDS011;4044;49.814;7.828;2023-04-01T09:36:45;0.33;;;0.33;;
7997;SDS011;4044;49.814;7.828;2023-04-01T09:39:42;0.23;;;0.23;;
7997;SDS011;4044;49.814;7.828;2023-04-01T09:44:53;0.40;;;0.40;;
7997;SDS011;4044;49.814;7.828;2023-04-01T09:47:41;0.30;;;0.30;;
7997;SDS011;4044;49.814;7.828;2023-04-01T10:07:38;0.20;;;0.20;;
7997;SDS011;4044;49.814;7.828;2023-04-01T10:13:25;0.20;;;0.20;;
7997;SDS011;4044;49.814;7.828;2023-04-01T10:16:26;0.30;;;0.30;;
7997;SDS011;4044;49.814;7.828;2023-04-01T10:22:12;0.57;;;0.10;;
7997;SDS011;4044;49.814;7.828;2023-04-01T10:24:59;0.57;;;0.20;;
7997;SDS011;4044;49.814;7.828;2023-04-01T10:33:38;0.50;;;0.40;;
7997;SDS011;4044;49.814;7.828;2023-04-01T10:39:19;0.30;;;0.30;;
7997;SDS011;4044;49.814;7.828;2023-04-01T10:48:35;0.30;;;0.20;;
7997;SDS011;4044;49.814;7.828;2023-04-01T10:51:18;0.30;;;0.30;;
7997;SDS011;4044;49.814;7.828;2023-04-01T11:00:05;0.20;;;0.20;;
7997;SDS011;4044;49.814;7.828;2023-04-01T11:11:36;2.53;;;0.70;;
7997;SDS011;4044;49.814;7.828;2023-04-01T11:14:32;0.30;;;0.30;;
7997;SDS011;4044;49.814;7.828;2023-04-01T11:22:46;0.57;;;0.47;;
7997;SDS011;4044;49.814;7.828;2023-04-01T11:33:56;0.60;;;0.60;;
7997;SDS011;4044;49.814;7.828;2023-04-01T11:45:00;0.60;;;0.60;;
7997;SDS011;4044;49.814;7.828;2023-04-01T11:47:48;1.70;;;0.60;;
7997;SDS011;4044;49.814;7.828;2023-04-01T11:50:43;1.33;;;0.70;;
7997;SDS011;4044;49.814;7.828;2023-04-01T11:56:12;2.30;;;1.00;;
7997;SDS011;4044;49.814;7.828;2023-04-01T11:59:02;3.13;;;1.00;;
7997;SDS011;4044;49.814;7.828;2023-04-01T12:07:22;0.93;;;0.60;;
7997;SDS011;4044;49.814;7.828;2023-04-01T12:20:57;0.80;;;0.80;;
7997;SDS011;4044;49.814;7.828;2023-04-01T12:32:06;0.70;;;0.70;;
7997;SDS011;4044;49.814;7.828;2023-04-01T12:45:29;3.17;;;1.00;;
7997;SDS011;4044;49.814;7.828;2023-04-01T12:50:35;5.37;;;1.00;;
7997;SDS011;4044;49.814;7.828;2023-04-01T13:01:59;0.83;;;0.67;;
7997;SDS011;4044;49.814;7.828;2023-04-01T13:04:51;1.23;;;1.10;;
7997;SDS011;4044;49.814;7.828;2023-04-01T13:07:45;1.60;;;0.93;;
7997;SDS011;4044;49.814;7.828;2023-04-01T13:10:30;5.00;;;1.33;;
7997;SDS011;4044;49.814;7.828;2023-04-01T13:15:48;3.80;;;1.00;;
7997;SDS011;4044;49.814;7.828;2023-04-01T13:29:54;2.13;;;1.20;;
7997;SDS011;4044;49.814;7.828;2023-04-01T13:32:45;1.00;;;0.60;;
7997;SDS011;4044;49.814;7.828;2023-04-01T13:35:22;1.00;;;0.90;;
7997;SDS011;4044;49.814;7.828;2023-04-01T13:43:39;1.20;;;1.07;;
7997;SDS011;4044;49.814;7.828;2023-04-01T13:46:17;0.60;;;0.60;;
7997;SDS011;4044;49.814;7.828;2023-04-01T13:57:16;0.67;;;0.67;;
7997;SDS011;4044;49.814;7.828;2023-04-01T14:08:34;0.70;;;0.70;;
7997;SDS011;4044;49.814;7.828;2023-04-01T14:11:25;0.77;;;0.40;;
7997;SDS011;4044;49.814;7.828;2023-04-01T14:14:05;0.43;;;0.43;;
7997;SDS011;4044;49.814;7.828;2023-04-01T14:19:42;0.40;;;0.40;;
7997;SDS011;4044;49.814;7.828;2023-04-01T14:33:20;0.50;;;0.50;;
7997;SDS011;4044;49.814;7.828;2023-04-01T14:41:48;1.50;;;0.63;;
7997;SDS011;4044;49.814;7.828;2023-04-01T14:50:24;0.70;;;0.70;;
7997;SDS011;4044;49.814;7.828;2023-04-01T14:52:59;0.80;;;0.80;;
7997;SDS011;4044;49.814;7.828;2023-04-01T14:58:22;0.93;;;0.60;;
7997;SDS011;4044;49.814;7.828;2023-04-01T15:01:06;0.47;;;0.47;;
7997;SDS011;4044;49.814;7.828;2023-04-01T15:04:01;1.43;;;0.47;;
7997;SDS011;4044;49.814;7.828;2023-04-01T15:24:12;1.17;;;0.67;;
7997;SDS011;4044;49.814;7.828;2023-04-01T15:27:02;0.67;;;0.60;;
7997;SDS011;4044;49.814;7.828;2023-04-01T15:37:56;0.57;;;0.40;;
7997;SDS011;4044;49.814;7.828;2023-04-01T15:40:42;0.67;;;0.67;;
7997;SDS011;4044;49.814;7.828;2023-04-01T15:49:28;0.60;;;0.60;;
7997;SDS011;4044;49.814;7.828;2023-04-01T15:55:03;0.40;;;0.40;;
7997;SDS011;4044;49.814;7.828;2023-04-01T15:57:33;1.00;;;0.60;;
7997;SDS011;4044;49.814;7.828;2023-04-01T16:14:18;1.57;;;0.90;;
7997;SDS011;4044;49.814;7.828;2023-04-01T16:27:53;0.60;;;0.60;;
7997;SDS011;4044;49.814;7.828;2023-04-01T16:44:44;0.40;;;0.40;;
7997;SDS011;4044;49.814;7.828;2023-04-01T16:47:15;0.70;;;0.70;;
7997;SDS011;4044;49.814;7.828;2023-04-01T16:50:19;0.50;;;0.50;;
7997;SDS011;4044;49.814;7.828;2023-04-01T16:52:53;0.93;;;0.50;;
7997;SDS011;4044;49.814;7.828;2023-04-01T16:55:34;0.80;;;0.80;;
7997;SDS011;4044;49.814;7.828;2023-04-01T17:01:33;2.97;;;2.67;;
7997;SDS011;4044;49.814;7.828;2023-04-01T17:06:56;1.37;;;1.27;;
7997;SDS011;4044;49.814;7.828;2023-04-01T17:09:51;1.17;;;0.70;;
7997;SDS011;4044;49.814;7.828;2023-04-01T17:20:49;0.47;;;0.47;;
7997;SDS011;4044;49.814;7.828;2023-04-01T17:23:29;0.50;;;0.50;;
7997;SDS011;4044;49.814;7.828;2023-04-01T17:29:54;0.60;;;0.60;;
7997;SDS011;4044;49.814;7.828;2023-04-01T17:31:50;0.27;;;0.27;;
7997;SDS011;4044;49.814;7.828;2023-04-01T17:34:55;0.30;;;0.30;;
7997;SDS011;4044;49.814;7.828;2023-04-01T17:54:06;1.40;;;0.63;;
7997;SDS011;4044;49.814;7.828;2023-04-01T17:57:00;1.37;;;0.90;;
7997;SDS011;4044;49.814;7.828;2023-04-01T17:59:56;1.07;;;0.70;;
7997;SDS011;4044;49.814;7.828;2023-04-01T18:02:46;0.60;;;0.40;;
7997;SDS011;4044;49.814;7.828;2023-04-01T18:11:08;0.77;;;0.77;;
7997;SDS011;4044;49.814;7.828;2023-04-01T18:16:15;0.80;;;0.80;;
7997;SDS011;4044;49.814;7.828;2023-04-01T18:24:14;1.70;;;0.93;;
7997;SDS011;4044;49.814;7.828;2023-04-01T18:26:49;1.00;;;1.00;;
7997;SDS011;4044;49.814;7.828;2023-04-01T18:32:31;1.17;;;0.90;;
7997;SDS011;4044;49.814;7.828;2023-04-01T18:37:53;1.57;;;1.10;;
7997;SDS011;4044;49.814;7.828;2023-04-01T18:51:17;2.40;;;1.27;;
7997;SDS011;4044;49.814;7.828;2023-04-01T18:56:32;1.57;;;1.47;;
7997;SDS011;4044;49.814;7.828;2023-04-01T18:59:06;2.00;;;1.63;;
7997;SDS011;4044;49.814;7.828;2023-04-01T19:01:41;2.13;;;1.60;;
7997;SDS011;4044;49.814;7.828;2023-04-01T19:09:54;1.10;;;1.10;;
7997;SDS011;4044;49.814;7.828;2023-04-01T19:12:38;1.10;;;1.10;;
7997;SDS011;4044;49.814;7.828;2023-04-01T19:15:27;3.97;;;3.67;;
7997;SDS011;4044;49.814;7.828;2023-04-01T19:20:43;0.70;;;0.70;;
7997;SDS011;4044;49.814;7.828;2023-04-01T19:26:04;2.10;;;1.23;;
7997;SDS011;4044;49.814;7.828;2023-04-01T19:31:29;6.70;;;6.00;;
7997;SDS011;4044;49.814;7.828;2023-04-01T19:34:21;1.50;;;1.40;;
7997;SDS011;4044;49.814;7.828;2023-04-01T19:37:16;3.03;;;2.73;;
7997;SDS011;4044;49.814;7.828;2023-04-01T19:51:37;0.90;;;0.90;;
7997;SDS011;4044;49.814;7.828;2023-04-01T19:59:22;1.00;;;1.00;;
7997;SDS011;4044;49.814;7.828;2023-04-01T20:02:00;1.43;;;1.00;;
7997;SDS011;4044;49.814;7.828;2023-04-01T20:04:48;0.90;;;0.90;;
7997;SDS011;4044;49.814;7.828;2023-04-01T20:07:33;0.90;;;0.90;;
7997;SDS011;4044;49.814;7.828;2023-04-01T20:10:10;1.47;;;1.00;;
7997;SDS011;4044;49.814;7.828;2023-04-01T20:15:26;0.97;;;0.90;;
7997;SDS011;4044;49.814;7.828;2023-04-01T20:17:57;1.00;;;1.00;;
7997;SDS011;4044;49.814;7.828;2023-04-01T20:20:26;1.00;;;1.00;;
7997;SDS011;4044;49.814;7.828;2023-04-01T20:25:37;2.60;;;1.60;;
7997;SDS011;4044;49.814;7.828;2023-04-01T20:36:56;1.37;;;1.20;;
7997;SDS011;4044;49.814;7.828;2023-04-01T20:44:52;1.10;;;1.10;;
7997;SDS011;4044;49.814;7.828;2023-04-01T20:53:28;1.60;;;1.50;;
7997;SDS011;4044;49.814;7.828;2023-04-01T21:12:54;1.10;;;1.10;;
7997;SDS011;4044;49.814;7.828;2023-04-01T21:22:06;1.63;;;1.53;;
7997;SDS011;4044;49.814;7.828;2023-04-01T21:29:32;2.57;;;1.60;;
7997;SDS011;4044;49.814;7.828;2023-04-01T21:32:08;1.60;;;1.50;;
7997;SDS011;4044;49.814;7.828;2023-04-01T21:34:57;1.63;;;1.53;;
7997;SDS011;4044;49.814;7.828;2023-04-01T21:37:42;3.17;;;1.70;;
7997;SDS011;4044;49.814;7.828;2023-04-01T21:43:35;1.53;;;1.43;;
7997;SDS011;4044;49.814;7.828;2023-04-01T21:49:36;1.70;;;1.60;;
7997;SDS011;4044;49.814;7.828;2023-04-01T22:03:12;2.37;;;2.17;;
7997;SDS011;4044;49.814;7.828;2023-04-01T22:08:46;3.13;;;2.00;;
7997;SDS011;4044;49.814;7.828;2023-04-01T22:11:29;1.93;;;1.83;;
7997;SDS011;4044;49.814;7.828;2023-04-01T22:14:10;2.10;;;2.00;;
7997;SDS011;4044;49.814;7.828;2023-04-01T22:16:57;2.60;;;2.40;;
7997;SDS011;4044;49.814;7.828;2023-04-01T22:22:27;2.23;;;2.00;;
7997;SDS011;4044;49.814;7.828;2023-04-01T22:25:00;2.00;;;1.90;;
7997;SDS011;4044;49.814;7.828;2023-04-01T22:27:42;2.10;;;1.90;;
7997;SDS011;4044;49.814;7.828;2023-04-01T22:30:27;2.93;;;2.30;;
7997;SDS011;4044;49.814;7.828;2023-04-01T22:33:22;2.10;;;2.00;;
7997;SDS011;4044;49.814;7.828;2023-04-01T22:35:55;2.07;;;1.97;;
7997;SDS011;4044;49.814;7.828;2023-04-01T22:38:39;2.10;;;2.00;;
7997;SDS011;4044;49.814;7.828;2023-04-01T22:44:05;2.50;;;2.10;;
7997;SDS011;4044;49.814;7.828;2023-04-01T22:49:21;2.47;;;2.10;;
7997;SDS011;4044;49.814;7.828;2023-04-01T22:51:58;2.80;;;1.90;;
7997;SDS011;4044;49.814;7.828;2023-04-01T22:54:48;2.30;;;2.10;;
7997;SDS011;4044;49.814;7.828;2023-04-01T23:00:26;1.90;;;1.80;;
7997;SDS011;4044;49.814;7.828;2023-04-01T23:03:28;2.97;;;2.10;;
7997;SDS011;4044;49.814;7.828;2023-04-01T23:06:01;2.30;;;2.20;;
7997;SDS011;4044;49.814;7.828;2023-04-01T23:11:23;3.03;;;1.83;;
7997;SDS011;4044;49.814;7.828;2023-04-01T23:16:51;2.50;;;1.83;;
7997;SDS011;4044;49.814;7.828;2023-04-01T23:20:02;3.73;;;2.13;;
7997;SDS011;4044;49.814;7.828;2023-04-01T23:25:13;2.97;;;2.10;;
7997;SDS011;4044;49.814;7.828;2023-04-01T23:33:10;2.20;;;2.00;;
7997;SDS011;4044;49.814;7.828;2023-04-01T23:35:46;4.30;;;2.20;;
7997;SDS011;4044;49.814;7.828;2023-04-01T23:38:37;2.30;;;2.20;;
7997;SDS011;4044;49.814;7.828;2023-04-01T23:41:04;2.33;;;2.13;;
7997;SDS011;4044;49.814;7.828;2023-04-01T23:43:32;4.10;;;1.90;;
7997;SDS011;4044;49.814;7.828;2023-04-01T23:46:01;1.70;;;1.60;;
7997;SDS011;4044;49.814;7.828;2023-04-01T23:48:32;1.80;;;1.70;;
7997;SDS011;4044;49.814;7.828;2023-04-01T23:51:03;1.53;;;1.47;;
7997;SDS011;4044;49.814;7.828;2023-04-01T23:53:37;1.70;;;1.60;;
7997;SDS011;4044;49.814;7.828;2023-04-01T23:56:10;1.80;;;1.70;;
7997;SDS011;4044;49.814;7.828;2023-04-01T23:58:41;1.60;;;1.50;;
